createdAt,value
2023-02-14T00:01:30.824Z,102997.38
2023-02-14T00:04:00.694Z,102996.47
2023-02-14T00:06:29.723Z,102996.59
2023-02-14T00:08:57.753Z,103000.19
2023-02-14T00:11:25.644Z,102988.78
2023-02-14T00:14:10.968Z,102990.56
2023-02-14T00:16:40.374Z,102995.63
2023-02-14T00:19:08.449Z,102997.28
2023-02-14T00:21:38.458Z,102983.88
2023-02-14T00:24:25.169Z,102676.00
2023-02-14T00:26:55.067Z,102996.28
2023-02-14T00:29:25.400Z,102989.50
2023-02-14T00:31:55.277Z,102991.16
2023-02-14T00:34:26.014Z,102997.94
2023-02-14T00:36:54.106Z,102991.94
2023-02-14T00:39:22.154Z,102975.03
2023-02-14T00:41:50.076Z,102992.63
2023-02-14T00:44:18.472Z,102933.16
2023-02-14T00:46:46.618Z,102995.94
2023-02-14T00:49:16.099Z,102998.31
2023-02-14T00:51:44.491Z,103003.72
2023-02-14T00:54:12.715Z,102998.16
2023-02-14T00:56:41.009Z,102999.75
2023-02-14T00:59:11.007Z,102996.94
2023-02-14T01:01:39.490Z,103005.69
2023-02-14T01:04:07.949Z,103019.69
2023-02-14T01:06:38.016Z,103010.84
2023-02-14T01:09:06.383Z,102996.72
2023-02-14T01:11:35.149Z,103009.00
2023-02-14T01:14:04.050Z,103007.06
2023-02-14T01:16:32.670Z,103010.00
2023-02-14T01:19:02.077Z,102983.63
2023-02-14T01:21:33.015Z,102995.06
2023-02-14T01:24:05.490Z,102987.56
2023-02-14T01:26:34.392Z,103005.47
2023-02-14T01:29:06.745Z,102996.59
2023-02-14T01:31:36.622Z,103004.09
2023-02-14T01:34:05.804Z,102997.06
2023-02-14T01:36:37.130Z,102999.94
2023-02-14T01:39:08.794Z,103001.19
2023-02-14T01:41:38.976Z,102935.78
2023-02-14T01:44:09.652Z,102995.41
2023-02-14T01:46:38.863Z,103003.19
2023-02-14T01:49:13.084Z,103009.25
2023-02-14T01:51:46.485Z,102998.88
2023-02-14T01:54:16.665Z,103000.44
2023-02-14T01:56:50.550Z,102977.19
2023-02-14T01:59:26.031Z,102980.44
2023-02-14T02:01:54.510Z,102998.34
2023-02-14T02:04:27.158Z,102998.13
2023-02-14T02:07:01.049Z,102992.00
2023-02-14T02:09:35.159Z,102995.59
2023-02-14T02:12:04.360Z,102956.59
2023-02-14T02:14:33.220Z,102984.22
2023-02-14T02:17:16.374Z,102986.66
2023-02-14T02:20:03.530Z,102984.03
2023-02-14T02:23:09.170Z,102979.63
2023-02-14T02:26:17.444Z,102970.84
2023-02-14T02:29:21.359Z,102965.41
2023-02-14T02:32:13.845Z,102966.16
2023-02-14T02:35:15.532Z,102959.38
2023-02-14T02:37:55.948Z,102946.88
2023-02-14T02:40:37.304Z,102953.63
2023-02-14T02:43:19.378Z,102936.78
2023-02-14T02:46:10.266Z,102944.81
2023-02-14T02:48:44.704Z,102940.41
2023-02-14T02:51:39.453Z,102940.91
2023-02-14T02:54:14.403Z,102940.09
2023-02-14T02:56:53.406Z,102933.06
2023-02-14T02:59:25.563Z,102942.56
2023-02-14T03:02:02.942Z,102941.59
2023-02-14T03:04:50.919Z,102929.88
2023-02-14T03:07:39.393Z,102934.34
2023-02-14T03:10:13.718Z,102936.78
2023-02-14T03:13:10.677Z,102941.41
2023-02-14T03:15:54.996Z,102881.78
2023-02-14T03:18:54.521Z,102928.09
2023-02-14T03:21:29.842Z,102927.16
2023-02-14T03:24:09.389Z,102924.44
2023-02-14T03:26:46.968Z,102932.44
2023-02-14T03:29:22.083Z,102923.81
2023-02-14T03:32:00.296Z,102930.56
2023-02-14T03:34:34.938Z,102916.72
2023-02-14T03:37:10.358Z,102922.88
2023-02-14T03:39:48.760Z,102911.84
2023-02-14T03:42:23.400Z,102919.94
2023-02-14T03:44:55.952Z,102880.22
2023-02-14T03:47:27.333Z,102909.69
2023-02-14T03:50:00.042Z,102908.59
2023-02-14T03:52:30.779Z,102903.28
2023-02-14T03:55:04.014Z,102879.31
2023-02-14T03:57:35.848Z,102909.25
2023-02-14T04:00:05.364Z,102900.44
2023-02-14T04:02:44.051Z,102904.66
2023-02-14T04:05:17.598Z,102907.84
2023-02-14T04:07:47.084Z,102905.81
2023-02-14T04:10:16.505Z,102903.91
2023-02-14T04:12:45.263Z,102903.66
2023-02-14T04:15:14.084Z,102881.97
2023-02-14T04:17:59.908Z,102895.28
2023-02-14T04:20:28.277Z,102900.25
2023-02-14T04:22:56.244Z,102872.63
2023-02-14T04:25:25.582Z,102893.41
2023-02-14T04:27:53.451Z,102903.69
2023-02-14T04:30:22.814Z,102896.53
2023-02-14T04:32:51.143Z,102890.38
2023-02-14T04:35:19.415Z,102889.56
2023-02-14T04:37:47.278Z,102875.31
2023-02-14T04:40:17.268Z,102883.13
2023-02-14T04:42:47.300Z,102881.34
2023-02-14T04:45:15.762Z,102876.94
2023-02-14T04:47:43.679Z,102879.47
2023-02-14T04:50:11.844Z,102882.09
2023-02-14T04:52:39.732Z,102875.97
2023-02-14T04:55:09.225Z,102882.06
2023-02-14T04:57:37.457Z,102867.81
2023-02-14T05:00:08.169Z,102877.69
2023-02-14T05:02:36.127Z,102883.78
2023-02-14T05:05:04.154Z,102881.19
2023-02-14T05:07:32.066Z,102875.88
2023-02-14T05:09:59.959Z,102881.22
2023-02-14T05:12:27.954Z,102872.25
2023-02-14T05:14:56.071Z,102875.22
2023-02-14T05:17:25.354Z,102876.13
2023-02-14T05:19:53.243Z,102878.81
2023-02-14T05:22:21.468Z,102871.03
2023-02-14T05:24:49.358Z,102873.38
2023-02-14T05:27:17.220Z,102875.00
2023-02-14T05:29:45.175Z,102866.28
2023-02-14T05:32:13.053Z,102871.41
2023-02-14T05:34:42.349Z,102867.00
2023-02-14T05:37:10.239Z,102867.69
2023-02-14T05:39:38.127Z,102864.13
2023-02-14T05:42:06.038Z,102864.97
2023-02-14T05:44:33.965Z,102813.94
2023-02-14T05:47:01.881Z,102868.31
2023-02-14T05:49:29.802Z,102861.16
2023-02-14T05:51:59.066Z,102876.41
2023-02-14T05:54:26.926Z,102878.03
2023-02-14T05:56:54.606Z,102877.28
2023-02-14T05:59:22.812Z,102879.81
2023-02-14T06:01:50.723Z,102876.38
2023-02-14T06:04:18.710Z,102878.97
2023-02-14T06:06:46.587Z,102868.09
2023-02-14T06:09:15.907Z,102872.78
2023-02-14T06:11:43.793Z,102879.81
2023-02-14T06:14:11.471Z,102877.13
2023-02-14T06:16:39.359Z,102876.06
2023-02-14T06:19:07.323Z,102869.16
2023-02-14T06:21:35.084Z,102876.97
2023-02-14T06:24:03.252Z,102809.25
2023-02-14T06:26:33.281Z,102876.81
2023-02-14T06:29:01.349Z,102882.34
2023-02-14T06:31:29.473Z,102871.00
2023-02-14T06:33:57.586Z,102877.19
2023-02-14T06:36:26.123Z,102885.72
2023-02-14T06:38:54.043Z,102883.94
2023-02-14T06:41:21.862Z,102882.28
2023-02-14T06:43:51.342Z,102888.53
2023-02-14T06:46:20.053Z,102889.53
2023-02-14T06:48:48.190Z,102884.19
2023-02-14T06:51:16.276Z,102895.72
2023-02-14T06:53:44.174Z,102899.41
2023-02-14T06:56:12.108Z,102895.00
2023-02-14T06:58:40.018Z,102894.34
2023-02-14T07:01:09.307Z,102890.91
2023-02-14T07:03:37.212Z,102892.56
2023-02-14T07:06:05.545Z,102895.25
2023-02-14T07:08:33.408Z,102884.84
2023-02-14T07:11:01.732Z,102894.41
2023-02-14T07:13:29.754Z,102895.41
2023-02-14T07:15:57.858Z,102899.28
2023-02-14T07:18:27.442Z,102901.16
2023-02-14T07:20:55.406Z,102891.63
2023-02-14T07:23:23.672Z,102896.56
2023-02-14T07:25:51.584Z,102892.06
2023-02-14T07:28:19.964Z,102897.50
2023-02-14T07:30:48.542Z,102889.78
2023-02-14T07:33:16.639Z,102882.66
2023-02-14T07:35:45.910Z,102891.69
2023-02-14T07:38:13.922Z,102887.34
2023-02-14T07:40:41.857Z,102892.00
2023-02-14T07:43:09.813Z,102886.78
2023-02-14T07:45:37.735Z,102882.13
2023-02-14T07:48:05.914Z,102870.88
2023-02-14T07:50:33.837Z,102879.13
2023-02-14T07:53:03.189Z,102882.94
2023-02-14T07:55:31.411Z,102873.88
2023-02-14T07:57:59.615Z,102874.25
2023-02-14T08:00:27.802Z,102868.81
2023-02-14T08:02:56.222Z,102871.00
2023-02-14T08:05:24.194Z,102863.44
2023-02-14T08:07:52.349Z,102863.72
2023-02-14T08:10:21.724Z,102864.72
2023-02-14T08:13:03.464Z,102864.03
2023-02-14T08:15:50.674Z,102867.44
2023-02-14T08:18:19.340Z,102858.69
2023-02-14T08:20:48.683Z,102860.81
2023-02-14T08:23:17.318Z,102868.34
2023-02-14T08:25:46.632Z,102864.50
2023-02-14T08:28:15.038Z,102863.56
2023-02-14T08:30:44.050Z,102862.88
2023-02-14T08:33:12.375Z,102848.75
2023-02-14T08:35:40.441Z,102858.47
2023-02-14T08:38:08.412Z,102856.72
2023-02-14T08:40:37.346Z,102859.66
2023-02-14T08:43:07.429Z,102857.47
2023-02-14T08:45:35.646Z,102847.75
2023-02-14T08:48:05.547Z,102824.78
2023-02-14T08:50:33.864Z,102847.75
2023-02-14T08:53:01.869Z,102852.19
2023-02-14T08:55:29.847Z,102822.09
2023-02-14T08:57:58.281Z,102840.41
2023-02-14T09:00:28.219Z,102836.34
2023-02-14T09:02:56.297Z,102839.91
2023-02-14T09:05:24.347Z,102842.16
2023-02-14T09:07:52.610Z,102842.81
2023-02-14T09:10:20.591Z,102847.84
2023-02-14T09:12:48.702Z,102848.31
2023-02-14T09:15:16.814Z,102847.75
2023-02-14T09:17:46.205Z,102847.88
2023-02-14T09:20:15.820Z,102845.66
2023-02-14T09:22:44.455Z,102783.66
2023-02-14T09:25:12.716Z,102852.72
2023-02-14T09:27:41.390Z,102854.41
2023-02-14T09:30:11.390Z,102846.38
2023-02-14T09:32:39.537Z,102857.97
2023-02-14T09:35:09.796Z,102841.66
2023-02-14T09:37:55.081Z,102836.63
2023-02-14T09:40:24.072Z,102838.31
2023-02-14T09:43:03.912Z,102834.47
2023-02-14T09:45:34.410Z,102830.09
2023-02-14T09:48:07.417Z,102833.25
2023-02-14T09:50:43.475Z,102788.19
2023-02-14T09:53:24.092Z,102822.31
2023-02-14T09:55:59.441Z,102818.81
2023-02-14T09:58:34.833Z,102826.50
2023-02-14T10:01:10.878Z,102790.75
2023-02-14T10:04:04.332Z,102824.63
2023-02-14T10:06:45.442Z,102812.47
2023-02-14T10:09:23.899Z,102862.50
2023-02-14T10:11:52.906Z,102885.84
2023-02-14T10:14:25.185Z,102894.13
2023-02-14T10:16:57.445Z,102851.56
2023-02-14T10:19:29.800Z,102910.53
2023-02-14T10:22:05.397Z,102827.09
2023-02-14T10:24:39.445Z,102845.16
2023-02-14T10:27:16.738Z,102902.19
2023-02-14T10:29:44.796Z,102918.16
2023-02-14T10:32:16.875Z,102849.72
2023-02-14T10:34:49.122Z,102831.63
2023-02-14T10:37:33.338Z,102817.09
2023-02-14T10:40:19.116Z,102813.00
2023-02-14T10:42:53.535Z,102814.75
2023-02-14T10:45:28.951Z,102809.50
2023-02-14T10:48:06.866Z,102792.81
2023-02-14T10:50:45.421Z,102772.91
2023-02-14T10:53:22.853Z,102759.94
2023-02-14T10:55:56.944Z,102736.81
2023-02-14T10:58:28.985Z,102723.09
2023-02-14T11:01:03.292Z,102703.53
2023-02-14T11:03:31.858Z,102716.84
2023-02-14T11:06:00.567Z,102709.72
2023-02-14T11:08:35.304Z,102714.78
2023-02-14T11:11:12.433Z,102700.06
2023-02-14T11:13:41.609Z,102724.66
2023-02-14T11:16:12.517Z,102729.47
2023-02-14T11:18:42.769Z,102746.13
2023-02-14T11:21:12.733Z,102730.84
2023-02-14T11:23:44.289Z,102736.53
2023-02-14T11:26:18.473Z,102726.16
2023-02-14T11:28:52.811Z,102723.38
2023-02-14T11:31:33.179Z,102726.00
2023-02-14T11:34:04.997Z,102713.31
2023-02-14T11:36:41.185Z,102711.16
2023-02-14T11:39:23.592Z,102715.91
2023-02-14T11:41:53.696Z,102716.06
2023-02-14T11:44:26.326Z,102707.69
2023-02-14T11:46:56.886Z,102713.13
2023-02-14T11:49:29.603Z,102706.59
2023-02-14T11:51:59.760Z,102704.25
2023-02-14T11:54:36.733Z,102701.69
2023-02-14T11:57:09.907Z,102694.25
2023-02-14T11:59:41.961Z,102699.84
2023-02-14T12:02:25.199Z,102705.84
2023-02-14T12:04:56.854Z,102690.53
2023-02-14T12:07:29.622Z,102672.41
2023-02-14T12:10:25.857Z,102688.19
2023-02-14T12:13:20.827Z,102662.63
2023-02-14T12:15:54.436Z,102649.28
2023-02-14T12:18:44.252Z,102657.53
2023-02-14T12:21:26.143Z,102665.22
2023-02-14T12:24:04.383Z,102658.03
2023-02-14T12:26:37.742Z,102657.13
2023-02-14T12:29:13.897Z,102658.88
2023-02-14T12:31:46.317Z,102646.00
2023-02-14T12:34:19.969Z,102647.84
2023-02-14T12:37:11.175Z,102647.25
2023-02-14T12:39:49.695Z,102639.78
2023-02-14T12:42:34.952Z,102644.25
2023-02-14T12:45:06.199Z,102636.75
2023-02-14T12:47:41.347Z,102637.66
2023-02-14T12:50:28.281Z,102627.09
2023-02-14T12:53:35.983Z,102623.31
2023-02-14T12:56:17.298Z,102616.00
2023-02-14T12:58:54.441Z,102576.66
2023-02-14T13:01:39.045Z,102582.19
2023-02-14T13:04:34.112Z,102616.56
2023-02-14T13:07:13.426Z,102603.25
2023-02-14T13:09:49.922Z,102585.41
2023-02-14T13:12:30.762Z,102597.66
2023-02-14T13:15:10.907Z,102593.69
2023-02-14T13:17:45.311Z,102587.72
2023-02-14T13:20:32.385Z,102586.41
2023-02-14T13:23:05.759Z,102582.88
2023-02-14T13:25:37.276Z,102583.81
2023-02-14T13:28:07.649Z,102578.41
2023-02-14T13:30:38.662Z,102580.75
2023-02-14T13:33:09.722Z,102566.56
2023-02-14T13:35:38.570Z,102574.38
2023-02-14T13:38:09.479Z,102543.09
2023-02-14T13:40:38.604Z,102566.69
2023-02-14T13:43:06.723Z,102562.91
2023-02-14T13:45:56.154Z,102564.81
2023-02-14T13:48:26.772Z,102547.97
2023-02-14T13:50:57.778Z,102547.00
2023-02-14T13:53:32.382Z,102553.13
2023-02-14T13:56:01.226Z,102553.91
2023-02-14T13:58:29.686Z,102550.38
2023-02-14T14:00:59.132Z,102547.81
2023-02-14T14:03:56.662Z,102555.00
2023-02-14T14:06:24.544Z,102552.22
2023-02-14T14:08:56.225Z,102548.78
2023-02-14T14:11:58.027Z,102540.75
2023-02-14T14:14:37.158Z,102530.53
2023-02-14T14:17:27.624Z,102542.84
2023-02-14T14:19:57.792Z,102512.06
2023-02-14T14:22:26.994Z,102545.13
2023-02-14T14:25:01.071Z,102536.25
2023-02-14T14:27:34.522Z,102537.81
2023-02-14T14:30:05.984Z,102532.34
2023-02-14T14:32:37.416Z,102539.91
2023-02-14T14:35:08.864Z,102529.09
2023-02-14T14:37:49.711Z,102531.81
2023-02-14T14:40:25.485Z,102462.94
2023-02-14T14:42:54.427Z,102536.28
2023-02-14T14:45:27.770Z,102513.13
2023-02-14T14:47:59.494Z,102532.41
2023-02-14T14:50:29.815Z,102531.13
2023-02-14T14:53:01.970Z,102531.19
2023-02-14T14:55:32.804Z,102521.69
2023-02-14T14:58:03.834Z,102522.59
2023-02-14T15:00:35.451Z,102523.78
2023-02-14T15:03:08.458Z,102529.72
2023-02-14T15:05:39.272Z,102528.63
2023-02-14T15:08:18.292Z,102519.66
2023-02-14T15:10:52.436Z,102511.97
2023-02-14T15:13:38.298Z,102511.38
2023-02-14T15:16:06.944Z,102504.19
2023-02-14T15:18:36.483Z,102500.38
2023-02-14T15:21:07.043Z,102503.16
2023-02-14T15:23:36.006Z,102496.56
2023-02-14T15:26:04.535Z,102511.00
2023-02-14T15:28:35.414Z,102480.38
2023-02-14T15:31:06.470Z,102507.63
2023-02-14T15:33:37.077Z,102503.25
2023-02-14T15:36:09.009Z,102500.44
2023-02-14T15:38:42.062Z,102514.41
2023-02-14T15:41:11.128Z,102495.31
2023-02-14T15:43:40.134Z,102506.13
2023-02-14T15:46:20.786Z,102487.72
2023-02-14T15:48:51.334Z,102504.03
2023-02-14T15:51:22.867Z,102492.81
2023-02-14T15:53:53.908Z,102494.78
2023-02-14T15:56:26.185Z,102486.09
2023-02-14T15:59:01.385Z,102492.41
2023-02-14T16:01:30.811Z,102488.22
2023-02-14T16:04:02.708Z,102504.22
2023-02-14T16:06:34.194Z,102497.31
2023-02-14T16:09:03.056Z,102493.81
2023-02-14T16:11:35.383Z,102502.75
2023-02-14T16:14:22.068Z,102494.91
2023-02-14T16:17:01.396Z,102486.19
2023-02-14T16:19:36.017Z,102485.34
2023-02-14T16:22:04.675Z,102503.06
2023-02-14T16:24:32.716Z,102504.00
2023-02-14T16:27:06.731Z,102501.41
2023-02-14T16:29:36.538Z,102476.69
2023-02-14T16:32:16.924Z,102491.75
2023-02-14T16:34:48.295Z,102501.50
2023-02-14T16:37:22.314Z,102494.47
2023-02-14T16:39:52.066Z,102494.50
2023-02-14T16:42:20.767Z,102500.66
2023-02-14T16:44:49.242Z,102494.50
2023-02-14T16:47:19.204Z,102495.41
2023-02-14T16:49:50.564Z,102501.56
2023-02-14T16:52:23.715Z,102495.38
2023-02-14T16:54:52.277Z,102501.56
2023-02-14T16:57:23.710Z,102503.34
2023-02-14T16:59:52.230Z,102515.66
2023-02-14T17:02:20.330Z,102465.31
2023-02-14T17:04:49.778Z,102507.69
2023-02-14T17:07:17.750Z,102507.66
2023-02-14T17:09:51.092Z,102513.81
2023-02-14T17:12:23.459Z,102502.31
2023-02-14T17:14:55.640Z,102515.50
2023-02-14T17:17:23.638Z,102515.47
2023-02-14T17:19:53.214Z,102515.44
2023-02-14T17:22:21.822Z,102506.56
2023-02-14T17:24:49.772Z,102516.22
2023-02-14T17:27:17.697Z,102513.50
2023-02-14T17:29:45.776Z,102509.97
2023-02-14T17:32:14.229Z,102520.47
2023-02-14T17:34:42.276Z,102509.84
2023-02-14T17:37:11.707Z,102512.44
2023-02-14T17:39:40.017Z,102513.25
2023-02-14T17:42:09.443Z,102514.94
2023-02-14T17:44:38.492Z,102507.78
2023-02-14T17:47:07.119Z,102517.44
2023-02-14T17:49:35.245Z,102513.84
2023-02-14T17:52:03.259Z,102508.50
2023-02-14T17:54:36.941Z,102503.22
2023-02-14T17:57:05.554Z,102510.25
2023-02-14T17:59:33.858Z,102511.06
2023-02-14T18:02:01.924Z,102509.25
2023-02-14T18:04:30.452Z,102501.16
2023-02-14T18:06:58.516Z,102507.31
2023-02-14T18:09:26.729Z,102501.97
2023-02-14T18:11:56.114Z,102501.03
2023-02-14T18:14:24.534Z,102495.75
2023-02-14T18:16:52.472Z,102495.72
2023-02-14T18:19:20.315Z,102500.06
2023-02-14T18:21:48.320Z,102503.47
2023-02-14T18:24:16.382Z,102490.22
2023-02-14T18:26:44.616Z,102486.59
2023-02-14T18:29:15.028Z,102492.66
2023-02-14T18:31:44.638Z,102489.09
2023-02-14T18:34:12.792Z,102488.16
2023-02-14T18:36:41.890Z,102488.09
2023-02-14T18:39:10.359Z,102478.34
2023-02-14T18:41:38.197Z,102474.72
2023-02-14T18:44:06.842Z,102483.44
2023-02-14T18:46:37.479Z,102486.91
2023-02-14T18:49:07.563Z,102478.06
2023-02-14T18:51:39.155Z,102475.31
2023-02-14T18:54:07.937Z,102479.72
2023-02-14T18:56:38.371Z,102472.53
2023-02-14T18:59:09.470Z,102479.47
2023-02-14T19:01:41.853Z,102465.31
2023-02-14T19:04:12.190Z,102473.22
2023-02-14T19:06:41.870Z,102468.84
2023-02-14T19:09:12.090Z,102462.53
2023-02-14T19:11:40.414Z,102460.72
2023-02-14T19:14:10.450Z,102457.91
2023-02-14T19:16:43.813Z,102450.13
2023-02-14T19:19:12.230Z,102449.16
2023-02-14T19:21:40.117Z,102443.78
2023-02-14T19:24:08.761Z,102442.88
2023-02-14T19:26:40.424Z,102450.66
2023-02-14T19:29:11.314Z,102450.59
2023-02-14T19:31:42.811Z,102438.22
2023-02-14T19:34:17.227Z,102443.53
2023-02-14T19:36:45.302Z,102442.59
2023-02-14T19:39:14.020Z,102441.66
2023-02-14T19:41:42.071Z,102441.59
2023-02-14T19:44:13.649Z,102427.47
2023-02-14T19:46:44.130Z,102423.00
2023-02-14T19:49:15.051Z,102424.63
2023-02-14T19:51:43.060Z,102430.75
2023-02-14T19:54:12.464Z,102443.03
2023-02-14T19:56:42.531Z,102438.53
2023-02-14T19:59:10.930Z,102441.16
2023-02-14T20:01:41.861Z,102411.03
2023-02-14T20:04:14.626Z,102419.91
2023-02-14T20:06:43.479Z,102407.41
2023-02-14T20:09:12.073Z,102411.91
2023-02-14T20:11:46.649Z,102433.00
2023-02-14T20:14:17.493Z,102427.72
2023-02-14T20:16:45.854Z,102425.06
2023-02-14T20:19:17.583Z,102424.94
2023-02-14T20:21:47.456Z,102410.78
2023-02-14T20:24:20.176Z,102424.84
2023-02-14T20:26:48.933Z,102417.81
2023-02-14T20:29:18.245Z,102411.59
2023-02-14T20:31:48.922Z,102407.13
2023-02-14T20:34:18.525Z,102408.91
2023-02-14T20:36:49.629Z,102416.66
2023-02-14T20:39:17.640Z,102413.03
2023-02-14T20:41:49.827Z,102405.94
2023-02-14T20:44:21.333Z,102404.16
2023-02-14T20:46:50.366Z,102415.44
2023-02-14T20:49:20.354Z,102411.72
2023-02-14T20:51:50.159Z,102412.41
2023-02-14T20:54:18.529Z,102409.72
2023-02-14T20:56:46.709Z,102404.47
2023-02-14T20:59:15.581Z,102406.97
2023-02-14T21:01:43.657Z,102397.16
2023-02-14T21:04:11.775Z,102406.91
2023-02-14T21:06:42.339Z,102386.50
2023-02-14T21:09:10.363Z,102407.66
2023-02-14T21:11:38.355Z,102405.13
2023-02-14T21:14:06.258Z,102411.97
2023-02-14T21:16:34.398Z,102395.22
2023-02-14T21:19:02.429Z,102401.22
2023-02-14T21:21:34.651Z,102396.91
2023-02-14T21:24:05.732Z,102402.88
2023-02-14T21:26:33.746Z,102376.34
2023-02-14T21:29:02.634Z,102404.56
2023-02-14T21:31:31.538Z,102400.91
2023-02-14T21:34:01.286Z,102402.50
2023-02-14T21:36:31.530Z,102394.66
2023-02-14T21:39:00.801Z,102374.31
2023-02-14T21:41:32.174Z,102371.81
2023-02-14T21:44:01.493Z,102370.91
2023-02-14T21:46:31.458Z,102382.28
2023-02-14T21:49:19.027Z,102377.09
2023-02-14T21:51:47.548Z,102385.19
2023-02-14T21:54:16.219Z,102317.41
2023-02-14T21:56:45.957Z,102371.50
2023-02-14T21:59:13.995Z,102370.81
2023-02-14T22:01:43.356Z,102368.91
2023-02-14T22:04:12.908Z,102365.47
2023-02-14T22:06:42.594Z,102345.94
2023-02-14T22:09:11.341Z,102362.00
2023-02-14T22:11:39.517Z,102365.69
2023-02-14T22:14:09.138Z,102358.44
2023-02-14T22:16:38.119Z,102354.88
2023-02-14T22:19:07.135Z,102351.56
2023-02-14T22:21:35.875Z,102356.19
2023-02-14T22:24:04.902Z,102357.91
2023-02-14T22:26:38.669Z,102355.16
2023-02-14T22:29:09.896Z,102329.41
2023-02-14T22:31:40.179Z,102351.41
2023-02-14T22:34:09.920Z,102330.31
2023-02-14T22:36:38.456Z,102359.53
2023-02-14T22:39:07.376Z,102346.28
2023-02-14T22:41:37.669Z,102275.00
2023-02-14T22:44:06.936Z,102292.97
2023-02-14T22:46:37.629Z,102355.72
2023-02-14T22:49:06.612Z,102343.31
2023-02-14T22:51:36.103Z,102345.88
2023-02-14T22:54:06.134Z,102339.69
2023-02-14T22:56:35.585Z,102337.28
2023-02-14T22:59:05.942Z,102335.41
2023-02-14T23:01:36.558Z,102335.38
2023-02-14T23:04:05.810Z,102331.47
2023-02-14T23:06:36.264Z,102338.50
2023-02-14T23:09:05.752Z,102340.44
2023-02-14T23:11:35.611Z,102332.66
2023-02-14T23:14:21.770Z,102341.47
2023-02-14T23:17:20.306Z,102337.66
2023-02-14T23:20:06.370Z,102313.84
2023-02-14T23:22:36.037Z,102315.50
2023-02-14T23:25:07.468Z,102331.34
2023-02-14T23:27:38.623Z,102326.09
2023-02-14T23:30:07.880Z,102323.41
2023-02-14T23:32:37.352Z,102249.19
2023-02-14T23:35:05.515Z,102297.06
2023-02-14T23:37:33.765Z,102327.13
2023-02-14T23:40:01.865Z,102319.25
2023-02-14T23:42:29.868Z,102315.72
2023-02-14T23:45:18.702Z,102321.56
2023-02-14T23:47:48.114Z,102315.81
2023-02-14T23:50:16.156Z,102315.16
2023-02-14T23:52:44.516Z,102310.75
2023-02-14T23:55:13.163Z,102262.44
2023-02-14T23:57:41.256Z,102307.94
